sensor_id;sensor_type;location;lat;lon;timestamp;P1;durP1;ratioP1;P2;durP2;ratioP2
50309;SDS011;36207;51.850;21.698;2023-04-07T00:02:10;19.70;;;13.40;;
50309;SDS011;36207;51.850;21.698;2023-04-07T00:04:36;18.90;;;12.90;;
50309;SDS011;36207;51.850;21.698;2023-04-07T00:07:02;18.10;;;13.00;;
50309;SDS011;36207;51.850;21.698;2023-04-07T00:09:28;18.60;;;12.90;;
50309;SDS011;36207;51.850;21.698;2023-04-07T00:11:55;17.70;;;12.70;;
50309;SDS011;36207;51.850;21.698;2023-04-07T00:14:21;17.40;;;12.70;;
50309;SDS011;36207;51.850;21.698;2023-04-07T00:16:47;19.80;;;12.90;;
50309;SDS011;36207;51.850;21.698;2023-04-07T00:19:13;20.10;;;12.70;;
50309;SDS011;36207;51.850;21.698;2023-04-07T00:21:39;18.60;;;12.90;;
50309;SDS011;36207;51.850;21.698;2023-04-07T00:24:05;18.40;;;12.80;;
50309;SDS011;36207;51.850;21.698;2023-04-07T00:26:32;19.50;;;13.30;;
50309;SDS011;36207;51.850;21.698;2023-04-07T00:28:58;17.80;;;12.80;;
50309;SDS011;36207;51.850;21.698;2023-04-07T00:31:24;16.60;;;12.40;;
50309;SDS011;36207;51.850;21.698;2023-04-07T00:33:50;18.20;;;13.00;;
50309;SDS011;36207;51.850;21.698;2023-04-07T00:36:16;18.80;;;13.00;;
50309;SDS011;36207;51.850;21.698;2023-04-07T00:38:42;18.00;;;12.60;;
50309;SDS011;36207;51.850;21.698;2023-04-07T00:41:08;19.10;;;12.50;;
50309;SDS011;36207;51.850;21.698;2023-04-07T00:43:35;17.70;;;12.80;;
50309;SDS011;36207;51.850;21.698;2023-04-07T00:46:00;18.30;;;13.10;;
50309;SDS011;36207;51.850;21.698;2023-04-07T00:48:27;19.80;;;13.50;;
50309;SDS011;36207;51.850;21.698;2023-04-07T00:50:53;19.30;;;13.20;;
50309;SDS011;36207;51.850;21.698;2023-04-07T00:53:19;18.30;;;13.00;;
50309;SDS011;36207;51.850;21.698;2023-04-07T00:55:45;17.60;;;13.00;;
50309;SDS011;36207;51.850;21.698;2023-04-07T00:58:11;20.00;;;14.20;;
50309;SDS011;36207;51.850;21.698;2023-04-07T01:00:42;20.80;;;14.40;;
50309;SDS011;36207;51.850;21.698;2023-04-07T01:03:24;20.00;;;14.50;;
50309;SDS011;36207;51.850;21.698;2023-04-07T01:06:00;22.70;;;16.00;;
50309;SDS011;36207;51.850;21.698;2023-04-07T01:08:32;20.30;;;14.80;;
50309;SDS011;36207;51.850;21.698;2023-04-07T01:11:02;20.50;;;14.80;;
50309;SDS011;36207;51.850;21.698;2023-04-07T01:13:33;22.40;;;15.60;;
50309;SDS011;36207;51.850;21.698;2023-04-07T01:16:04;19.30;;;14.40;;
50309;SDS011;36207;51.850;21.698;2023-04-07T01:18:34;20.40;;;15.00;;
50309;SDS011;36207;51.850;21.698;2023-04-07T01:21:05;21.40;;;14.90;;
50309;SDS011;36207;51.850;21.698;2023-04-07T01:23:51;21.60;;;15.10;;
50309;SDS011;36207;51.850;21.698;2023-04-07T01:26:26;22.30;;;15.20;;
50309;SDS011;36207;51.850;21.698;2023-04-07T01:31:55;21.20;;;15.70;;
50309;SDS011;36207;51.850;21.698;2023-04-07T01:34:24;22.90;;;15.70;;
50309;SDS011;36207;51.850;21.698;2023-04-07T01:36:54;24.10;;;16.90;;
50309;SDS011;36207;51.850;21.698;2023-04-07T01:39:22;23.50;;;17.30;;
50309;SDS011;36207;51.850;21.698;2023-04-07T01:41:51;25.40;;;17.10;;
50309;SDS011;36207;51.850;21.698;2023-04-07T01:44:19;27.50;;;18.00;;
50309;SDS011;36207;51.850;21.698;2023-04-07T01:46:46;24.10;;;17.70;;
50309;SDS011;36207;51.850;21.698;2023-04-07T01:49:12;24.00;;;17.00;;
50309;SDS011;36207;51.850;21.698;2023-04-07T01:51:40;23.80;;;17.40;;
50309;SDS011;36207;51.850;21.698;2023-04-07T01:54:07;29.20;;;18.10;;
50309;SDS011;36207;51.850;21.698;2023-04-07T01:56:33;27.50;;;19.20;;
50309;SDS011;36207;51.850;21.698;2023-04-07T01:58:59;26.20;;;18.50;;
50309;SDS011;36207;51.850;21.698;2023-04-07T02:01:25;26.60;;;18.70;;
50309;SDS011;36207;51.850;21.698;2023-04-07T02:03:52;23.50;;;17.20;;
50309;SDS011;36207;51.850;21.698;2023-04-07T02:06:26;25.20;;;17.60;;
50309;SDS011;36207;51.850;21.698;2023-04-07T02:09:03;26.40;;;18.40;;
50309;SDS011;36207;51.850;21.698;2023-04-07T02:11:32;24.90;;;18.00;;
50309;SDS011;36207;51.850;21.698;2023-04-07T02:14:01;24.80;;;18.10;;
50309;SDS011;36207;51.850;21.698;2023-04-07T02:16:31;26.30;;;17.70;;
50309;SDS011;36207;51.850;21.698;2023-04-07T02:18:57;28.30;;;18.20;;
50309;SDS011;36207;51.850;21.698;2023-04-07T02:21:24;27.20;;;19.30;;
50309;SDS011;36207;51.850;21.698;2023-04-07T02:23:52;29.50;;;19.80;;
50309;SDS011;36207;51.850;21.698;2023-04-07T02:26:18;27.90;;;20.00;;
50309;SDS011;36207;51.850;21.698;2023-04-07T02:28:44;25.20;;;18.40;;
50309;SDS011;36207;51.850;21.698;2023-04-07T02:31:10;27.10;;;18.80;;
50309;SDS011;36207;51.850;21.698;2023-04-07T02:33:38;28.30;;;19.20;;
50309;SDS011;36207;51.850;21.698;2023-04-07T02:36:04;25.80;;;18.90;;
50309;SDS011;36207;51.850;21.698;2023-04-07T02:38:30;28.20;;;20.10;;
50309;SDS011;36207;51.850;21.698;2023-04-07T02:40:57;27.10;;;18.70;;
50309;SDS011;36207;51.850;21.698;2023-04-07T02:43:23;27.20;;;19.50;;
50309;SDS011;36207;51.850;21.698;2023-04-07T02:45:50;24.80;;;18.10;;
50309;SDS011;36207;51.850;21.698;2023-04-07T02:48:16;24.60;;;18.30;;
50309;SDS011;36207;51.850;21.698;2023-04-07T02:50:42;26.60;;;18.60;;
50309;SDS011;36207;51.850;21.698;2023-04-07T02:53:08;26.20;;;18.80;;
50309;SDS011;36207;51.850;21.698;2023-04-07T02:55:34;25.50;;;19.20;;
50309;SDS011;36207;51.850;21.698;2023-04-07T02:58:00;28.00;;;18.70;;
50309;SDS011;36207;51.850;21.698;2023-04-07T03:00:26;25.00;;;18.00;;
50309;SDS011;36207;51.850;21.698;2023-04-07T03:02:52;25.20;;;18.70;;
50309;SDS011;36207;51.850;21.698;2023-04-07T03:05:18;27.10;;;18.00;;
50309;SDS011;36207;51.850;21.698;2023-04-07T03:07:44;28.40;;;19.40;;
50309;SDS011;36207;51.850;21.698;2023-04-07T03:10:10;26.30;;;18.50;;
50309;SDS011;36207;51.850;21.698;2023-04-07T03:12:36;26.00;;;17.50;;
50309;SDS011;36207;51.850;21.698;2023-04-07T03:15:02;26.00;;;18.90;;
50309;SDS011;36207;51.850;21.698;2023-04-07T03:17:28;26.70;;;18.00;;
50309;SDS011;36207;51.850;21.698;2023-04-07T03:19:55;26.90;;;19.20;;
50309;SDS011;36207;51.850;21.698;2023-04-07T03:22:21;26.10;;;19.50;;
50309;SDS011;36207;51.850;21.698;2023-04-07T03:24:47;27.90;;;18.70;;
50309;SDS011;36207;51.850;21.698;2023-04-07T03:27:13;26.80;;;19.20;;
50309;SDS011;36207;51.850;21.698;2023-04-07T03:29:39;29.30;;;19.50;;
50309;SDS011;36207;51.850;21.698;2023-04-07T03:32:05;28.50;;;20.00;;
50309;SDS011;36207;51.850;21.698;2023-04-07T03:34:31;26.80;;;19.90;;
50309;SDS011;36207;51.850;21.698;2023-04-07T03:36:57;27.70;;;19.60;;
50309;SDS011;36207;51.850;21.698;2023-04-07T03:39:23;26.80;;;19.00;;
50309;SDS011;36207;51.850;21.698;2023-04-07T03:41:49;26.70;;;19.20;;
50309;SDS011;36207;51.850;21.698;2023-04-07T03:44:16;27.10;;;18.90;;
50309;SDS011;36207;51.850;21.698;2023-04-07T03:46:42;27.50;;;19.10;;
50309;SDS011;36207;51.850;21.698;2023-04-07T03:49:10;26.70;;;19.10;;
50309;SDS011;36207;51.850;21.698;2023-04-07T03:51:39;26.50;;;18.80;;
50309;SDS011;36207;51.850;21.698;2023-04-07T03:54:05;26.40;;;18.20;;
50309;SDS011;36207;51.850;21.698;2023-04-07T03:56:31;26.10;;;17.70;;
50309;SDS011;36207;51.850;21.698;2023-04-07T03:58:57;25.00;;;18.60;;
50309;SDS011;36207;51.850;21.698;2023-04-07T04:01:23;25.10;;;18.10;;
50309;SDS011;36207;51.850;21.698;2023-04-07T04:03:49;23.10;;;17.70;;
50309;SDS011;36207;51.850;21.698;2023-04-07T04:06:15;24.90;;;18.50;;
50309;SDS011;36207;51.850;21.698;2023-04-07T04:08:41;24.10;;;17.50;;
50309;SDS011;36207;51.850;21.698;2023-04-07T04:11:07;23.90;;;17.70;;
50309;SDS011;36207;51.850;21.698;2023-04-07T04:13:33;25.70;;;18.40;;
50309;SDS011;36207;51.850;21.698;2023-04-07T04:15:59;23.90;;;17.30;;
50309;SDS011;36207;51.850;21.698;2023-04-07T04:18:25;25.70;;;18.20;;
50309;SDS011;36207;51.850;21.698;2023-04-07T04:20:51;23.10;;;17.00;;
50309;SDS011;36207;51.850;21.698;2023-04-07T04:23:17;24.20;;;16.80;;
50309;SDS011;36207;51.850;21.698;2023-04-07T04:25:42;24.60;;;17.50;;
50309;SDS011;36207;51.850;21.698;2023-04-07T04:28:08;23.20;;;16.80;;
50309;SDS011;36207;51.850;21.698;2023-04-07T04:30:38;22.60;;;16.80;;
50309;SDS011;36207;51.850;21.698;2023-04-07T04:33:03;22.30;;;16.30;;
50309;SDS011;36207;51.850;21.698;2023-04-07T04:35:29;22.20;;;15.90;;
50309;SDS011;36207;51.850;21.698;2023-04-07T04:37:55;21.10;;;15.50;;
50309;SDS011;36207;51.850;21.698;2023-04-07T04:40:21;21.80;;;16.10;;
50309;SDS011;36207;51.850;21.698;2023-04-07T04:42:47;19.40;;;15.50;;
50309;SDS011;36207;51.850;21.698;2023-04-07T04:45:13;21.50;;;16.20;;
50309;SDS011;36207;51.850;21.698;2023-04-07T04:47:39;20.30;;;15.40;;
50309;SDS011;36207;51.850;21.698;2023-04-07T04:50:06;19.70;;;14.70;;
50309;SDS011;36207;51.850;21.698;2023-04-07T04:52:32;19.60;;;14.90;;
50309;SDS011;36207;51.850;21.698;2023-04-07T04:54:59;20.80;;;15.20;;
50309;SDS011;36207;51.850;21.698;2023-04-07T04:57:25;18.70;;;14.60;;
50309;SDS011;36207;51.850;21.698;2023-04-07T04:59:50;19.80;;;15.40;;
50309;SDS011;36207;51.850;21.698;2023-04-07T05:02:19;18.50;;;14.30;;
50309;SDS011;36207;51.850;21.698;2023-04-07T05:04:46;20.50;;;14.70;;
50309;SDS011;36207;51.850;21.698;2023-04-07T05:07:12;19.70;;;14.60;;
50309;SDS011;36207;51.850;21.698;2023-04-07T05:09:38;18.60;;;14.60;;
50309;SDS011;36207;51.850;21.698;2023-04-07T05:12:04;18.70;;;14.50;;
50309;SDS011;36207;51.850;21.698;2023-04-07T05:14:30;18.40;;;13.90;;
50309;SDS011;36207;51.850;21.698;2023-04-07T05:16:56;20.00;;;14.00;;
50309;SDS011;36207;51.850;21.698;2023-04-07T05:19:22;18.30;;;14.50;;
50309;SDS011;36207;51.850;21.698;2023-04-07T05:21:48;18.90;;;14.90;;
50309;SDS011;36207;51.850;21.698;2023-04-07T05:24:14;19.80;;;14.80;;
50309;SDS011;36207;51.850;21.698;2023-04-07T05:26:40;19.10;;;15.40;;
50309;SDS011;36207;51.850;21.698;2023-04-07T05:29:06;20.20;;;14.80;;
50309;SDS011;36207;51.850;21.698;2023-04-07T05:31:31;18.60;;;14.10;;
50309;SDS011;36207;51.850;21.698;2023-04-07T05:34:04;20.90;;;15.20;;
50309;SDS011;36207;51.850;21.698;2023-04-07T05:36:30;20.90;;;16.10;;
50309;SDS011;36207;51.850;21.698;2023-04-07T05:38:56;21.70;;;16.40;;
50309;SDS011;36207;51.850;21.698;2023-04-07T05:41:22;22.00;;;16.50;;
50309;SDS011;36207;51.850;21.698;2023-04-07T05:43:48;21.70;;;15.70;;
50309;SDS011;36207;51.850;21.698;2023-04-07T05:46:14;20.00;;;15.30;;
50309;SDS011;36207;51.850;21.698;2023-04-07T05:48:40;20.80;;;15.90;;
50309;SDS011;36207;51.850;21.698;2023-04-07T05:51:06;22.20;;;16.00;;
50309;SDS011;36207;51.850;21.698;2023-04-07T05:53:32;23.00;;;16.20;;
50309;SDS011;36207;51.850;21.698;2023-04-07T05:55:58;19.30;;;15.20;;
50309;SDS011;36207;51.850;21.698;2023-04-07T05:58:24;20.70;;;14.90;;
50309;SDS011;36207;51.850;21.698;2023-04-07T06:00:50;19.70;;;15.10;;
50309;SDS011;36207;51.850;21.698;2023-04-07T06:03:16;23.60;;;15.60;;
50309;SDS011;36207;51.850;21.698;2023-04-07T06:05:44;22.70;;;16.00;;
50309;SDS011;36207;51.850;21.698;2023-04-07T06:08:11;22.50;;;16.20;;
50309;SDS011;36207;51.850;21.698;2023-04-07T06:10:37;21.60;;;15.20;;
50309;SDS011;36207;51.850;21.698;2023-04-07T06:13:05;20.00;;;15.00;;
50309;SDS011;36207;51.850;21.698;2023-04-07T06:15:32;23.50;;;16.30;;
50309;SDS011;36207;51.850;21.698;2023-04-07T06:17:58;20.60;;;15.70;;
50309;SDS011;36207;51.850;21.698;2023-04-07T06:20:24;24.40;;;16.40;;
50309;SDS011;36207;51.850;21.698;2023-04-07T06:22:52;22.80;;;16.30;;
50309;SDS011;36207;51.850;21.698;2023-04-07T06:25:19;20.80;;;15.50;;
50309;SDS011;36207;51.850;21.698;2023-04-07T06:27:45;21.70;;;15.60;;
50309;SDS011;36207;51.850;21.698;2023-04-07T06:30:12;24.90;;;17.00;;
50309;SDS011;36207;51.850;21.698;2023-04-07T06:32:38;25.10;;;16.50;;
50309;SDS011;36207;51.850;21.698;2023-04-07T06:35:04;24.10;;;16.60;;
50309;SDS011;36207;51.850;21.698;2023-04-07T06:37:30;22.30;;;15.30;;
50309;SDS011;36207;51.850;21.698;2023-04-07T06:39:56;21.30;;;16.00;;
50309;SDS011;36207;51.850;21.698;2023-04-07T06:42:22;21.90;;;15.80;;
50309;SDS011;36207;51.850;21.698;2023-04-07T06:44:48;21.80;;;16.00;;
50309;SDS011;36207;51.850;21.698;2023-04-07T06:47:14;22.30;;;15.90;;
50309;SDS011;36207;51.850;21.698;2023-04-07T06:49:40;23.40;;;15.20;;
50309;SDS011;36207;51.850;21.698;2023-04-07T06:52:09;21.30;;;15.10;;
50309;SDS011;36207;51.850;21.698;2023-04-07T06:54:35;20.70;;;15.00;;
50309;SDS011;36207;51.850;21.698;2023-04-07T06:57:01;23.30;;;15.40;;
50309;SDS011;36207;51.850;21.698;2023-04-07T06:59:27;21.50;;;15.90;;
50309;SDS011;36207;51.850;21.698;2023-04-07T07:01:53;21.60;;;15.30;;
50309;SDS011;36207;51.850;21.698;2023-04-07T07:04:22;21.60;;;14.70;;
50309;SDS011;36207;51.850;21.698;2023-04-07T07:06:48;19.80;;;14.70;;
50309;SDS011;36207;51.850;21.698;2023-04-07T07:09:14;19.80;;;14.80;;
50309;SDS011;36207;51.850;21.698;2023-04-07T07:11:40;20.70;;;15.90;;
50309;SDS011;36207;51.850;21.698;2023-04-07T07:14:06;20.70;;;14.80;;
50309;SDS011;36207;51.850;21.698;2023-04-07T07:16:32;21.10;;;15.30;;
50309;SDS011;36207;51.850;21.698;2023-04-07T07:18:58;20.00;;;14.90;;
50309;SDS011;36207;51.850;21.698;2023-04-07T07:21:23;20.40;;;15.30;;
50309;SDS011;36207;51.850;21.698;2023-04-07T07:23:50;19.50;;;14.80;;
50309;SDS011;36207;51.850;21.698;2023-04-07T07:26:16;22.80;;;15.70;;
50309;SDS011;36207;51.850;21.698;2023-04-07T07:28:42;19.70;;;14.60;;
50309;SDS011;36207;51.850;21.698;2023-04-07T07:31:09;19.70;;;14.30;;
50309;SDS011;36207;51.850;21.698;2023-04-07T07:33:38;20.90;;;14.10;;
50309;SDS011;36207;51.850;21.698;2023-04-07T07:36:06;21.40;;;15.20;;
50309;SDS011;36207;51.850;21.698;2023-04-07T07:38:32;21.70;;;14.70;;
50309;SDS011;36207;51.850;21.698;2023-04-07T07:40:58;17.50;;;13.60;;
50309;SDS011;36207;51.850;21.698;2023-04-07T07:43:24;18.50;;;13.40;;
50309;SDS011;36207;51.850;21.698;2023-04-07T07:45:50;19.50;;;14.10;;
50309;SDS011;36207;51.850;21.698;2023-04-07T07:48:15;17.80;;;14.10;;
50309;SDS011;36207;51.850;21.698;2023-04-07T07:50:42;17.20;;;13.40;;
50309;SDS011;36207;51.850;21.698;2023-04-07T07:53:09;19.60;;;13.40;;
50309;SDS011;36207;51.850;21.698;2023-04-07T07:55:35;18.30;;;13.30;;
50309;SDS011;36207;51.850;21.698;2023-04-07T07:58:01;18.50;;;13.30;;
50309;SDS011;36207;51.850;21.698;2023-04-07T08:00:27;18.60;;;14.30;;
50309;SDS011;36207;51.850;21.698;2023-04-07T08:02:53;18.70;;;13.90;;
50309;SDS011;36207;51.850;21.698;2023-04-07T08:05:19;17.30;;;13.20;;
50309;SDS011;36207;51.850;21.698;2023-04-07T08:07:46;16.10;;;12.10;;
50309;SDS011;36207;51.850;21.698;2023-04-07T08:10:12;17.80;;;12.90;;
50309;SDS011;36207;51.850;21.698;2023-04-07T08:12:38;22.60;;;13.60;;
50309;SDS011;36207;51.850;21.698;2023-04-07T08:15:04;18.80;;;13.70;;
50309;SDS011;36207;51.850;21.698;2023-04-07T08:17:34;19.80;;;14.10;;
50309;SDS011;36207;51.850;21.698;2023-04-07T08:20:01;17.90;;;12.60;;
50309;SDS011;36207;51.850;21.698;2023-04-07T08:22:28;15.40;;;12.50;;
50309;SDS011;36207;51.850;21.698;2023-04-07T08:24:54;17.70;;;12.40;;
50309;SDS011;36207;51.850;21.698;2023-04-07T08:27:20;18.40;;;13.30;;
50309;SDS011;36207;51.850;21.698;2023-04-07T08:29:59;16.50;;;12.40;;
50309;SDS011;36207;51.850;21.698;2023-04-07T08:32:34;15.20;;;12.10;;
50309;SDS011;36207;51.850;21.698;2023-04-07T08:37:27;18.40;;;12.00;;
50309;SDS011;36207;51.850;21.698;2023-04-07T08:39:53;18.90;;;12.80;;
50309;SDS011;36207;51.850;21.698;2023-04-07T08:42:19;18.60;;;12.60;;
50309;SDS011;36207;51.850;21.698;2023-04-07T08:44:50;15.50;;;11.30;;
50309;SDS011;36207;51.850;21.698;2023-04-07T08:47:18;17.10;;;11.00;;
50309;SDS011;36207;51.850;21.698;2023-04-07T08:49:45;15.10;;;10.90;;
50309;SDS011;36207;51.850;21.698;2023-04-07T08:52:16;19.10;;;11.50;;
50309;SDS011;36207;51.850;21.698;2023-04-07T08:54:45;16.20;;;11.60;;
50309;SDS011;36207;51.850;21.698;2023-04-07T08:57:11;14.30;;;11.10;;
50309;SDS011;36207;51.850;21.698;2023-04-07T08:59:40;15.60;;;10.70;;
50309;SDS011;36207;51.850;21.698;2023-04-07T09:02:09;14.30;;;11.00;;
50309;SDS011;36207;51.850;21.698;2023-04-07T09:04:35;15.70;;;10.40;;
50309;SDS011;36207;51.850;21.698;2023-04-07T09:07:02;17.30;;;11.40;;
50309;SDS011;36207;51.850;21.698;2023-04-07T09:09:28;13.80;;;10.90;;
50309;SDS011;36207;51.850;21.698;2023-04-07T09:11:54;13.90;;;10.70;;
50309;SDS011;36207;51.850;21.698;2023-04-07T09:14:20;14.40;;;10.80;;
50309;SDS011;36207;51.850;21.698;2023-04-07T09:16:46;19.20;;;11.20;;
50309;SDS011;36207;51.850;21.698;2023-04-07T09:19:12;15.80;;;11.80;;
50309;SDS011;36207;51.850;21.698;2023-04-07T09:21:45;16.40;;;11.50;;
50309;SDS011;36207;51.850;21.698;2023-04-07T09:24:23;16.50;;;12.20;;
50309;SDS011;36207;51.850;21.698;2023-04-07T09:27:07;15.80;;;11.10;;
50309;SDS011;36207;51.850;21.698;2023-04-07T09:29:36;16.90;;;11.00;;
50309;SDS011;36207;51.850;21.698;2023-04-07T09:32:03;16.10;;;12.20;;
50309;SDS011;36207;51.850;21.698;2023-04-07T09:34:33;17.30;;;12.20;;
50309;SDS011;36207;51.850;21.698;2023-04-07T09:37:01;17.40;;;12.10;;
50309;SDS011;36207;51.850;21.698;2023-04-07T09:39:27;15.70;;;10.90;;
50309;SDS011;36207;51.850;21.698;2023-04-07T09:41:54;14.90;;;11.60;;
50309;SDS011;36207;51.850;21.698;2023-04-07T09:44:20;17.60;;;11.80;;
50309;SDS011;36207;51.850;21.698;2023-04-07T09:46:47;17.70;;;11.80;;
50309;SDS011;36207;51.850;21.698;2023-04-07T09:49:18;16.60;;;11.40;;
50309;SDS011;36207;51.850;21.698;2023-04-07T09:52:01;16.80;;;10.80;;
50309;SDS011;36207;51.850;21.698;2023-04-07T09:56:59;16.20;;;11.10;;
50309;SDS011;36207;51.850;21.698;2023-04-07T09:59:28;15.10;;;10.50;;
50309;SDS011;36207;51.850;21.698;2023-04-07T10:01:55;17.00;;;11.30;;
50309;SDS011;36207;51.850;21.698;2023-04-07T10:04:22;14.50;;;10.30;;
50309;SDS011;36207;51.850;21.698;2023-04-07T10:06:49;16.70;;;10.60;;
50309;SDS011;36207;51.850;21.698;2023-04-07T10:09:15;13.60;;;10.80;;
50309;SDS011;36207;51.850;21.698;2023-04-07T10:11:45;14.90;;;11.00;;
50309;SDS011;36207;51.850;21.698;2023-04-07T10:14:11;15.20;;;10.30;;
50309;SDS011;36207;51.850;21.698;2023-04-07T10:16:37;12.90;;;10.30;;
50309;SDS011;36207;51.850;21.698;2023-04-07T10:19:04;13.70;;;10.40;;
50309;SDS011;36207;51.850;21.698;2023-04-07T10:21:34;14.40;;;10.60;;
50309;SDS011;36207;51.850;21.698;2023-04-07T10:26:55;12.30;;;9.90;;
50309;SDS011;36207;51.850;21.698;2023-04-07T10:29:23;13.30;;;9.60;;
50309;SDS011;36207;51.850;21.698;2023-04-07T10:31:51;12.40;;;9.40;;
50309;SDS011;36207;51.850;21.698;2023-04-07T10:34:39;12.40;;;9.30;;
50309;SDS011;36207;51.850;21.698;2023-04-07T10:37:18;14.00;;;9.90;;
50309;SDS011;36207;51.850;21.698;2023-04-07T10:39:46;12.80;;;9.70;;
50309;SDS011;36207;51.850;21.698;2023-04-07T10:45:01;12.30;;;9.50;;
50309;SDS011;36207;51.850;21.698;2023-04-07T10:47:28;12.50;;;9.60;;
50309;SDS011;36207;51.850;21.698;2023-04-07T10:53:11;14.00;;;9.30;;
50309;SDS011;36207;51.850;21.698;2023-04-07T10:58:14;11.50;;;6.50;;
50309;SDS011;36207;51.850;21.698;2023-04-07T11:00:40;11.10;;;6.70;;
50309;SDS011;36207;51.850;21.698;2023-04-07T11:03:12;12.40;;;7.40;;
50309;SDS011;36207;51.850;21.698;2023-04-07T11:05:39;13.20;;;8.60;;
50309;SDS011;36207;51.850;21.698;2023-04-07T11:08:05;9.40;;;5.70;;
50309;SDS011;36207;51.850;21.698;2023-04-07T11:10:32;8.30;;;5.50;;
50309;SDS011;36207;51.850;21.698;2023-04-07T11:15:34;21.80;;;11.00;;
50309;SDS011;36207;51.850;21.698;2023-04-07T11:18:12;13.90;;;6.40;;
50309;SDS011;36207;51.850;21.698;2023-04-07T11:20:46;7.30;;;4.50;;
50309;SDS011;36207;51.850;21.698;2023-04-07T11:23:17;8.30;;;5.50;;
50309;SDS011;36207;51.850;21.698;2023-04-07T11:25:47;8.30;;;5.50;;
50309;SDS011;36207;51.850;21.698;2023-04-07T11:28:14;9.60;;;5.90;;
50309;SDS011;36207;51.850;21.698;2023-04-07T11:30:45;8.70;;;5.50;;
50309;SDS011;36207;51.850;21.698;2023-04-07T11:33:22;8.10;;;5.40;;
50309;SDS011;36207;51.850;21.698;2023-04-07T11:35:54;8.00;;;5.40;;
50309;SDS011;36207;51.850;21.698;2023-04-07T11:38:22;11.10;;;5.80;;
50309;SDS011;36207;51.850;21.698;2023-04-07T11:40:49;9.40;;;5.60;;
50309;SDS011;36207;51.850;21.698;2023-04-07T11:43:18;9.40;;;5.60;;
50309;SDS011;36207;51.850;21.698;2023-04-07T11:45:47;8.40;;;5.80;;
50309;SDS011;36207;51.850;21.698;2023-04-07T11:48:34;11.40;;;7.30;;
50309;SDS011;36207;51.850;21.698;2023-04-07T11:51:02;14.10;;;8.80;;
50309;SDS011;36207;51.850;21.698;2023-04-07T11:53:28;16.40;;;9.30;;
50309;SDS011;36207;51.850;21.698;2023-04-07T11:56:06;11.80;;;6.30;;
50309;SDS011;36207;51.850;21.698;2023-04-07T11:58:34;7.00;;;4.60;;
50309;SDS011;36207;51.850;21.698;2023-04-07T12:01:02;6.90;;;4.50;;
50309;SDS011;36207;51.850;21.698;2023-04-07T12:03:31;7.20;;;4.60;;
50309;SDS011;36207;51.850;21.698;2023-04-07T12:05:59;6.60;;;4.40;;
50309;SDS011;36207;51.850;21.698;2023-04-07T12:08:38;7.30;;;4.70;;
50309;SDS011;36207;51.850;21.698;2023-04-07T12:11:08;7.20;;;4.90;;
50309;SDS011;36207;51.850;21.698;2023-04-07T12:13:35;7.30;;;4.50;;
50309;SDS011;36207;51.850;21.698;2023-04-07T12:16:02;6.40;;;4.60;;
50309;SDS011;36207;51.850;21.698;2023-04-07T12:18:29;6.20;;;4.50;;
50309;SDS011;36207;51.850;21.698;2023-04-07T12:20:55;7.60;;;4.50;;
50309;SDS011;36207;51.850;21.698;2023-04-07T12:23:23;6.60;;;4.30;;
50309;SDS011;36207;51.850;21.698;2023-04-07T12:25:49;8.00;;;4.60;;
50309;SDS011;36207;51.850;21.698;2023-04-07T12:28:15;6.40;;;4.30;;
50309;SDS011;36207;51.850;21.698;2023-04-07T12:30:41;6.50;;;4.10;;
50309;SDS011;36207;51.850;21.698;2023-04-07T12:33:07;6.80;;;4.00;;
50309;SDS011;36207;51.850;21.698;2023-04-07T12:35:33;6.60;;;4.30;;
50309;SDS011;36207;51.850;21.698;2023-04-07T12:37:59;6.50;;;4.10;;
50309;SDS011;36207;51.850;21.698;2023-04-07T12:40:25;8.10;;;4.80;;
50309;SDS011;36207;51.850;21.698;2023-04-07T12:42:51;8.80;;;5.30;;
50309;SDS011;36207;51.850;21.698;2023-04-07T12:45:17;12.70;;;7.40;;
50309;SDS011;36207;51.850;21.698;2023-04-07T12:47:43;10.00;;;7.00;;
50309;SDS011;36207;51.850;21.698;2023-04-07T12:50:09;9.10;;;5.20;;
50309;SDS011;36207;51.850;21.698;2023-04-07T12:52:35;14.00;;;8.70;;
50309;SDS011;36207;51.850;21.698;2023-04-07T12:55:02;15.50;;;8.00;;
50309;SDS011;36207;51.850;21.698;2023-04-07T12:57:28;10.60;;;5.70;;
50309;SDS011;36207;51.850;21.698;2023-04-07T12:59:53;9.20;;;5.50;;
50309;SDS011;36207;51.850;21.698;2023-04-07T13:02:19;13.20;;;7.60;;
50309;SDS011;36207;51.850;21.698;2023-04-07T13:04:46;16.50;;;8.90;;
50309;SDS011;36207;51.850;21.698;2023-04-07T13:07:12;10.70;;;5.60;;
50309;SDS011;36207;51.850;21.698;2023-04-07T13:09:38;9.40;;;5.10;;
50309;SDS011;36207;51.850;21.698;2023-04-07T13:12:11;8.80;;;5.20;;
50309;SDS011;36207;51.850;21.698;2023-04-07T13:14:41;9.00;;;5.70;;
50309;SDS011;36207;51.850;21.698;2023-04-07T13:17:07;8.90;;;5.50;;
50309;SDS011;36207;51.850;21.698;2023-04-07T13:19:33;8.80;;;5.40;;
50309;SDS011;36207;51.850;21.698;2023-04-07T13:21:59;8.70;;;5.00;;
50309;SDS011;36207;51.850;21.698;2023-04-07T13:24:30;15.30;;;9.50;;
50309;SDS011;36207;51.850;21.698;2023-04-07T13:26:56;14.50;;;8.20;;
50309;SDS011;36207;51.850;21.698;2023-04-07T13:29:22;9.90;;;5.00;;
50309;SDS011;36207;51.850;21.698;2023-04-07T13:31:48;7.70;;;4.80;;
50309;SDS011;36207;51.850;21.698;2023-04-07T13:34:14;8.30;;;4.30;;
50309;SDS011;36207;51.850;21.698;2023-04-07T13:36:41;9.10;;;5.90;;
50309;SDS011;36207;51.850;21.698;2023-04-07T13:39:08;16.40;;;9.60;;
50309;SDS011;36207;51.850;21.698;2023-04-07T13:41:34;20.90;;;8.10;;
50309;SDS011;36207;51.850;21.698;2023-04-07T13:44:00;7.90;;;4.70;;
50309;SDS011;36207;51.850;21.698;2023-04-07T13:46:26;8.90;;;5.10;;
50309;SDS011;36207;51.850;21.698;2023-04-07T13:48:53;7.50;;;4.70;;
50309;SDS011;36207;51.850;21.698;2023-04-07T13:51:19;8.60;;;4.90;;
50309;SDS011;36207;51.850;21.698;2023-04-07T13:53:45;7.60;;;4.60;;
50309;SDS011;36207;51.850;21.698;2023-04-07T13:56:12;5.90;;;4.20;;
50309;SDS011;36207;51.850;21.698;2023-04-07T13:58:38;9.10;;;4.50;;
50309;SDS011;36207;51.850;21.698;2023-04-07T14:01:05;6.50;;;4.10;;
50309;SDS011;36207;51.850;21.698;2023-04-07T14:03:31;7.70;;;4.50;;
50309;SDS011;36207;51.850;21.698;2023-04-07T14:05:57;8.00;;;4.30;;
50309;SDS011;36207;51.850;21.698;2023-04-07T14:08:25;7.00;;;4.20;;
50309;SDS011;36207;51.850;21.698;2023-04-07T14:10:52;6.70;;;4.30;;
50309;SDS011;36207;51.850;21.698;2023-04-07T14:13:18;8.10;;;4.70;;
50309;SDS011;36207;51.850;21.698;2023-04-07T14:15:44;6.70;;;4.20;;
50309;SDS011;36207;51.850;21.698;2023-04-07T14:18:10;9.90;;;4.60;;
50309;SDS011;36207;51.850;21.698;2023-04-07T14:20:36;8.20;;;4.80;;
50309;SDS011;36207;51.850;21.698;2023-04-07T14:23:02;10.70;;;5.30;;
50309;SDS011;36207;51.850;21.698;2023-04-07T14:25:28;14.70;;;8.10;;
50309;SDS011;36207;51.850;21.698;2023-04-07T14:27:54;7.10;;;4.60;;
50309;SDS011;36207;51.850;21.698;2023-04-07T14:30:20;8.70;;;5.20;;
50309;SDS011;36207;51.850;21.698;2023-04-07T14:32:46;10.40;;;6.30;;
50309;SDS011;36207;51.850;21.698;2023-04-07T14:35:12;10.00;;;6.50;;
50309;SDS011;36207;51.850;21.698;2023-04-07T14:37:38;34.80;;;22.30;;